Time;durP1;ratioP1;P1;durP2;ratioP2;P2;SDS_P1;SDS_P2;PMS_P1;PMS_P2;Temp;Humidity;BMP_temperature;BMP_pressure;BME280_temperature;BME280_humidity;BME280_pressure;Samples;Min_cycle;Max_cycle;Signal;HPM_P1;HPM_P2
2022/04/09 00:01:19;;;;;;;3.45;1.00;;;11.50;47.90;;;;;;5097056;28;20217;-63
2022/04/09 00:03:46;;;;;;;2.40;0.80;;;11.60;47.90;;;;;;5105697;28;20233;-64
2022/04/09 00:06:15;;;;;;;1.60;0.70;;;11.60;47.60;;;;;;5113784;28;20533;-64
2022/04/09 00:08:42;;;;;;;4.72;1.95;;;11.70;47.70;;;;;;5102008;28;20231;-64
2022/04/09 00:11:09;;;;;;;1.80;0.90;;;11.70;47.70;;;;;;5093337;28;20549;-63
2022/04/09 00:13:37;;;;;;;2.47;0.70;;;11.80;47.90;;;;;;5103160;28;20531;-66
2022/04/09 00:16:05;;;;;;;1.73;0.70;;;11.80;47.90;;;;;;5113573;28;20184;-63
2022/04/09 00:18:32;;;;;;;3.15;0.77;;;11.80;47.80;;;;;;5104034;28;20274;-63
2022/04/09 00:20:59;;;;;;;2.72;0.90;;;11.90;47.90;;;;;;5093035;28;20225;-64
2022/04/09 00:23:28;;;;;;;5.22;1.00;;;11.90;48.00;;;;;;5100588;28;20539;-64
2022/04/09 00:25:55;;;;;;;2.65;0.98;;;12.00;48.10;;;;;;5095300;28;20728;-63
2022/04/09 00:28:22;;;;;;;2.20;1.17;;;12.10;48.60;;;;;;5099123;28;20185;-64
2022/04/09 00:30:49;;;;;;;3.03;1.10;;;12.10;48.90;;;;;;5113366;28;20678;-63
2022/04/09 00:33:17;;;;;;;2.90;0.85;;;12.10;49.50;;;;;;5107982;28;20551;-63
2022/04/09 00:35:44;;;;;;;2.97;1.00;;;12.10;49.60;;;;;;5092959;28;20276;-63
2022/04/09 00:38:11;;;;;;;2.17;0.90;;;12.10;50.10;;;;;;5095954;28;20280;-63
2022/04/09 00:40:41;;;;;;;1.90;0.70;;;12.20;50.40;;;;;;5112693;28;20196;-64
2022/04/09 00:43:08;;;;;;;3.60;1.10;;;12.20;51.00;;;;;;5109982;28;20218;-64
2022/04/09 00:45:35;;;;;;;4.07;1.63;;;12.30;51.50;;;;;;5093038;28;20205;-64
2022/04/09 00:48:03;;;;;;;2.20;1.00;;;12.30;52.50;;;;;;5101175;28;20222;-64
2022/04/09 00:50:30;;;;;;;1.80;0.90;;;12.30;54.00;;;;;;5095106;28;20242;-63
2022/04/09 00:53:02;;;;;;;3.35;0.90;;;12.30;55.50;;;;;;5099739;28;20184;-63
2022/04/09 00:58:20;;;;;;;2.15;0.93;;;12.20;59.40;;;;;;5102872;28;20196;-64
2022/04/09 01:00:49;;;;;;;1.80;0.80;;;12.10;61.60;;;;;;5110907;28;20213;-63
2022/04/09 01:03:19;;;;;;;2.90;1.00;;;12.00;62.90;;;;;;5103695;28;20224;-64
2022/04/09 01:05:48;;;;;;;2.10;1.00;;;12.00;62.80;;;;;;5092120;28;20196;-63
2022/04/09 01:08:16;;;;;;;2.40;1.10;;;11.90;62.70;;;;;;5099929;28;20279;-65
2022/04/09 01:10:46;;;;;;;2.20;0.93;;;11.80;63.40;;;;;;5112795;28;20500;-64
2022/04/09 01:13:14;;;;;;;3.35;1.10;;;11.70;62.80;;;;;;5105274;28;20238;-64
2022/04/09 01:15:43;;;;;;;2.17;0.70;;;11.60;63.50;;;;;;5092192;28;20644;-64
2022/04/09 01:18:11;;;;;;;2.40;1.10;;;11.60;65.20;;;;;;5092828;28;20212;-64
2022/04/09 01:20:38;;;;;;;4.57;0.98;;;11.50;65.80;;;;;;5092019;28;20197;-64
2022/04/09 01:23:06;;;;;;;3.35;0.90;;;11.50;67.10;;;;;;5092382;28;20279;-64
2022/04/09 01:25:34;;;;;;;1.70;0.70;;;11.40;65.30;;;;;;5091930;28;20185;-67
2022/04/09 01:28:02;;;;;;;2.40;0.60;;;11.40;64.80;;;;;;5110279;28;20197;-64
2022/04/09 01:30:29;;;;;;;1.60;0.70;;;11.40;65.30;;;;;;5112420;28;20195;-63
2022/04/09 01:32:57;;;;;;;1.80;0.70;;;11.30;65.10;;;;;;5105647;28;20310;-63
2022/04/09 01:35:24;;;;;;;1.50;0.70;;;11.30;64.50;;;;;;5112392;28;20188;-63
2022/04/09 01:37:52;;;;;;;2.00;0.95;;;11.20;64.70;;;;;;5094349;28;20224;-63
2022/04/09 01:40:20;;;;;;;1.73;0.70;;;11.20;64.90;;;;;;5091980;28;20234;-63
2022/04/09 01:42:47;;;;;;;2.30;0.75;;;11.20;64.80;;;;;;5108049;28;20220;-64
2022/04/09 01:45:14;;;;;;;1.65;0.70;;;11.20;65.40;;;;;;5112455;28;20372;-63
2022/04/09 01:47:46;;;;;;;1.50;0.70;;;11.30;66.00;;;;;;5096980;28;20196;-64
2022/04/09 01:50:21;;;;;;;1.80;0.60;;;11.20;66.90;;;;;;5092035;28;20255;-63
2022/04/09 01:52:49;;;;;;;1.70;0.68;;;11.00;63.80;;;;;;5106716;28;20200;-63
2022/04/09 01:55:16;;;;;;;2.45;0.70;;;10.70;63.80;;;;;;5105717;28;20704;-64
2022/04/09 01:57:45;;;;;;;1.92;0.63;;;10.50;63.50;;;;;;5096004;28;20258;-63
2022/04/09 02:00:15;;;;;;;1.80;0.60;;;10.20;64.20;;;;;;5106569;28;20273;-64
2022/04/09 02:02:43;;;;;;;1.60;0.70;;;10.00;64.60;;;;;;5105295;28;20212;-63
2022/04/09 02:05:11;;;;;;;1.70;0.70;;;9.80;65.80;;;;;;5112547;28;20184;-63
2022/04/09 02:07:38;;;;;;;1.88;0.70;;;9.60;66.80;;;;;;5098890;28;20185;-67
2022/04/09 02:10:07;;;;;;;1.60;0.70;;;9.30;67.40;;;;;;5092107;28;20189;-63
2022/04/09 02:12:35;;;;;;;1.92;0.60;;;9.20;67.40;;;;;;5093020;28;20709;-67
2022/04/09 02:15:05;;;;;;;1.40;0.50;;;8.90;68.00;;;;;;5091804;28;20185;-63
2022/04/09 02:17:32;;;;;;;1.50;0.50;;;8.70;67.90;;;;;;5102288;28;20215;-63
2022/04/09 02:19:59;;;;;;;1.50;0.63;;;8.50;68.40;;;;;;5100813;28;20181;-63
2022/04/09 02:22:26;;;;;;;1.50;0.50;;;8.30;67.70;;;;;;5091610;28;20225;-63
2022/04/09 02:24:54;;;;;;;1.50;0.50;;;8.20;68.40;;;;;;5101308;28;20549;-63
2022/04/09 02:27:21;;;;;;;1.50;0.60;;;8.00;68.40;;;;;;5115596;28;20195;-63
2022/04/09 02:29:48;;;;;;;1.45;0.50;;;7.80;68.60;;;;;;5108580;28;20639;-63
2022/04/09 02:32:16;;;;;;;1.42;0.50;;;7.70;68.10;;;;;;5095297;28;20587;-63
2022/04/09 02:34:44;;;;;;;1.45;0.50;;;7.50;67.00;;;;;;5100198;28;20187;-64
2022/04/09 02:37:11;;;;;;;1.50;0.50;;;7.30;68.40;;;;;;5115565;28;20199;-63
2022/04/09 02:39:38;;;;;;;1.42;0.50;;;7.20;68.80;;;;;;5111282;28;20193;-65
2022/04/09 02:42:05;;;;;;;1.40;0.50;;;7.10;69.20;;;;;;5100662;28;20208;-63
2022/04/09 02:44:32;;;;;;;1.50;0.50;;;7.00;68.10;;;;;;5112869;28;20192;-63
2022/04/09 02:47:00;;;;;;;1.40;0.50;;;6.90;68.40;;;;;;5094821;28;20193;-63
2022/04/09 02:49:28;;;;;;;1.40;0.50;;;6.80;68.40;;;;;;5095149;28;20627;-63
2022/04/09 02:51:55;;;;;;;1.98;0.50;;;6.80;68.40;;;;;;5115125;28;20285;-64
2022/04/09 02:54:22;;;;;;;1.52;0.50;;;6.80;67.90;;;;;;5114552;28;20188;-69
2022/04/09 02:56:49;;;;;;;1.40;0.50;;;6.60;67.30;;;;;;5114725;28;20547;-64
2022/04/09 02:59:17;;;;;;;1.50;0.50;;;6.60;67.90;;;;;;5114733;28;20196;-63
2022/04/09 03:01:46;;;;;;;1.40;0.50;;;6.60;67.60;;;;;;5095753;28;20212;-64
2022/04/09 03:04:14;;;;;;;1.40;0.50;;;6.50;67.70;;;;;;5094562;28;20215;-63
2022/04/09 03:06:45;;;;;;;1.40;0.52;;;6.50;67.20;;;;;;5113025;28;20228;-63
2022/04/09 03:09:12;;;;;;;2.10;0.70;;;6.50;68.20;;;;;;5114734;28;20196;-68
2022/04/09 03:11:39;;;;;;;1.45;0.50;;;6.50;66.70;;;;;;5096212;28;20189;-63
2022/04/09 03:14:07;;;;;;;1.40;0.40;;;6.50;66.90;;;;;;5094716;28;20193;-63
2022/04/09 03:16:34;;;;;;;2.85;0.50;;;6.50;67.20;;;;;;5106224;28;20241;-63
2022/04/09 03:19:01;;;;;;;1.40;0.50;;;6.60;67.70;;;;;;5094387;28;20212;-63
2022/04/09 03:21:28;;;;;;;1.40;0.50;;;6.50;67.40;;;;;;5094077;28;20229;-63
2022/04/09 03:23:56;;;;;;;1.40;0.50;;;6.50;67.10;;;;;;5094063;28;20690;-63
2022/04/09 03:26:23;;;;;;;1.42;0.50;;;6.60;67.50;;;;;;5113417;28;20668;-63
2022/04/09 03:28:54;;;;;;;1.50;0.60;;;6.60;67.20;;;;;;5096084;28;20700;-63
2022/04/09 03:31:21;;;;;;;1.40;0.50;;;6.50;67.20;;;;;;5094411;28;20230;-63
2022/04/09 03:33:51;;;;;;;1.40;0.50;;;6.50;67.00;;;;;;5110519;28;20237;-63
2022/04/09 03:36:20;;;;;;;1.67;0.60;;;6.40;66.90;;;;;;5114482;28;20231;-63
2022/04/09 03:38:47;;;;;;;1.48;0.60;;;6.40;67.10;;;;;;5097577;28;20658;-64
2022/04/09 03:41:16;;;;;;;1.52;0.70;;;6.40;67.20;;;;;;5093731;28;20548;-64
2022/04/09 03:43:43;;;;;;;1.40;0.50;;;6.40;66.70;;;;;;5108602;28;20677;-63
2022/04/09 03:46:10;;;;;;;1.60;0.50;;;6.40;66.50;;;;;;5114399;28;20226;-63
2022/04/09 03:48:37;;;;;;;1.40;0.50;;;6.40;66.70;;;;;;5100182;28;20182;-63
2022/04/09 03:51:04;;;;;;;1.40;0.50;;;6.40;66.60;;;;;;5104955;28;20700;-63
2022/04/09 03:53:32;;;;;;;1.40;0.50;;;6.30;66.70;;;;;;5113655;28;20188;-63
2022/04/09 03:55:59;;;;;;;1.40;0.50;;;6.30;66.60;;;;;;5103599;28;20242;-63
2022/04/09 03:58:27;;;;;;;1.50;0.50;;;6.30;66.50;;;;;;5093205;28;20651;-63
2022/04/09 04:00:54;;;;;;;2.78;0.60;;;6.30;66.50;;;;;;5102036;28;20181;-63
2022/04/09 04:03:22;;;;;;;1.40;0.57;;;6.30;66.70;;;;;;5114130;28;20273;-63
2022/04/09 04:05:49;;;;;;;1.80;0.95;;;6.30;67.00;;;;;;5106436;28;20200;-63
2022/04/09 04:08:16;;;;;;;1.40;0.50;;;6.30;66.90;;;;;;5093638;28;20197;-63
2022/04/09 04:10:43;;;;;;;1.50;0.57;;;6.30;66.80;;;;;;5098667;28;20181;-63
2022/04/09 04:13:11;;;;;;;2.30;0.70;;;6.20;66.90;;;;;;5113923;28;20184;-63
2022/04/09 04:15:40;;;;;;;1.80;0.70;;;6.20;67.20;;;;;;5105795;28;20177;-63
2022/04/09 04:18:08;;;;;;;1.98;0.70;;;6.20;67.00;;;;;;5093586;28;20307;-63
2022/04/09 04:20:35;;;;;;;1.48;0.60;;;6.20;67.70;;;;;;5101994;28;20263;-63
2022/04/09 04:23:03;;;;;;;1.80;0.82;;;6.20;67.50;;;;;;5113694;28;20210;-63
2022/04/09 04:25:30;;;;;;;1.50;0.70;;;6.20;67.40;;;;;;5111937;28;20710;-63
2022/04/09 04:27:57;;;;;;;1.75;0.60;;;6.20;67.10;;;;;;5113812;28;20587;-63
2022/04/09 04:30:24;;;;;;;1.42;0.60;;;6.20;68.10;;;;;;5105088;28;20185;-63
2022/04/09 04:32:53;;;;;;;1.80;0.80;;;6.10;67.20;;;;;;5093131;28;20217;-63
2022/04/09 04:35:20;;;;;;;1.90;1.00;;;6.10;67.20;;;;;;5099790;28;20181;-63
2022/04/09 04:37:49;;;;;;;2.35;1.40;;;6.10;67.70;;;;;;5113579;28;20203;-63
2022/04/09 04:40:16;;;;;;;2.40;0.95;;;6.10;67.60;;;;;;5106806;28;20189;-63
2022/04/09 04:42:45;;;;;;;1.70;0.80;;;6.10;68.10;;;;;;5093041;28;20189;-64
2022/04/09 04:45:12;;;;;;;1.75;0.90;;;6.00;67.80;;;;;;5097132;28;20655;-64
2022/04/09 04:47:44;;;;;;;1.50;0.70;;;6.00;67.90;;;;;;5112705;28;20185;-63
2022/04/09 04:50:13;;;;;;;1.67;0.90;;;6.00;68.30;;;;;;5109347;28;20181;-63
2022/04/09 04:52:40;;;;;;;1.60;0.77;;;6.00;68.30;;;;;;5092757;28;20216;-63
2022/04/09 04:55:09;;;;;;;1.80;0.70;;;6.00;68.50;;;;;;5094634;28;20199;-63
2022/04/09 04:57:47;;;;;;;1.70;1.00;;;6.00;68.50;;;;;;5112538;28;20278;-62
2022/04/09 05:00:18;;;;;;;1.70;0.95;;;5.90;69.10;;;;;;5109823;28;20282;-63
2022/04/09 05:02:45;;;;;;;1.80;1.00;;;5.90;68.30;;;;;;5092793;28;20193;-63
2022/04/09 05:05:13;;;;;;;1.77;1.00;;;5.90;68.70;;;;;;5096850;28;20184;-63
2022/04/09 05:07:42;;;;;;;1.75;0.93;;;5.90;68.60;;;;;;5113026;28;20241;-64
2022/04/09 05:10:10;;;;;;;1.80;0.90;;;5.90;68.70;;;;;;5101511;28;20246;-63
2022/04/09 05:12:38;;;;;;;1.70;0.80;;;5.90;68.70;;;;;;5092522;28;20587;-64
2022/04/09 05:15:07;;;;;;;2.20;1.13;;;5.90;68.60;;;;;;5101747;28;20192;-64
2022/04/09 05:17:34;;;;;;;1.90;1.00;;;5.90;68.90;;;;;;5112775;28;20227;-65
2022/04/09 05:20:03;;;;;;;2.15;1.23;;;5.90;68.80;;;;;;5103653;28;20189;-64
2022/04/09 05:22:32;;;;;;;1.80;0.98;;;5.80;69.10;;;;;;5092509;28;20651;-62
2022/04/09 05:24:59;;;;;;;2.85;1.35;;;5.80;69.20;;;;;;5099579;28;20654;-63
2022/04/09 05:27:27;;;;;;;4.05;1.00;;;5.70;69.20;;;;;;5112794;28;20199;-63
2022/04/09 05:29:54;;;;;;;2.38;1.33;;;5.80;69.60;;;;;;5111133;28;20180;-63
2022/04/09 05:32:21;;;;;;;2.38;1.40;;;5.80;68.40;;;;;;5100038;28;20246;-63
2022/04/09 05:34:49;;;;;;;4.07;1.65;;;5.80;68.70;;;;;;5096864;28;20729;-63
2022/04/09 05:37:17;;;;;;;3.53;2.13;;;5.80;69.20;;;;;;5113034;28;20200;-64
2022/04/09 05:39:46;;;;;;;2.92;1.92;;;5.70;69.20;;;;;;5109108;28;20179;-66
2022/04/09 05:42:14;;;;;;;3.80;2.10;;;5.80;69.70;;;;;;5092262;28;20189;-64
2022/04/09 05:44:41;;;;;;;4.18;2.15;;;5.80;69.80;;;;;;5094483;28;20208;-63
2022/04/09 05:47:09;;;;;;;3.20;2.10;;;5.80;69.90;;;;;;5112763;28;20248;-64
2022/04/09 05:49:36;;;;;;;3.00;2.03;;;5.80;70.40;;;;;;5111453;28;20199;-63
2022/04/09 05:52:03;;;;;;;4.30;2.45;;;5.90;70.80;;;;;;5093585;28;20246;-63
2022/04/09 05:54:31;;;;;;;2.58;1.65;;;5.90;70.70;;;;;;5092005;28;20252;-63
2022/04/09 05:57:01;;;;;;;2.92;1.65;;;5.90;70.10;;;;;;5112211;28;20218;-63
2022/04/09 05:59:30;;;;;;;2.75;1.30;;;6.00;70.60;;;;;;5114137;28;20196;-63
2022/04/09 06:01:57;;;;;;;2.08;1.40;;;6.10;70.40;;;;;;5096988;28;20217;-63
2022/04/09 06:04:24;;;;;;;2.25;1.35;;;6.20;70.80;;;;;;5096358;28;20216;-63
2022/04/09 06:06:51;;;;;;;3.03;1.60;;;6.20;70.70;;;;;;5113522;28;20606;-63
2022/04/09 06:09:19;;;;;;;2.65;1.75;;;6.30;69.80;;;;;;5116409;28;20265;-63
2022/04/09 06:11:47;;;;;;;2.88;1.75;;;6.30;69.30;;;;;;5099440;28;20185;-63
2022/04/09 06:14:15;;;;;;;2.50;2.10;;;6.40;69.50;;;;;;5095757;28;20221;-63
2022/04/09 06:16:44;;;;;;;3.60;2.22;;;6.50;69.70;;;;;;5110864;28;20220;-63
2022/04/09 06:19:12;;;;;;;2.95;1.70;;;6.50;69.60;;;;;;5116347;28;20520;-63
2022/04/09 06:21:39;;;;;;;4.18;2.30;;;6.60;69.60;;;;;;5101338;28;20215;-64
2022/04/09 06:24:07;;;;;;;3.38;2.30;;;6.70;69.80;;;;;;5095752;28;20201;-64
2022/04/09 06:26:34;;;;;;;3.75;2.90;;;6.90;70.20;;;;;;5107783;28;20188;-63
2022/04/09 06:29:01;;;;;;;3.42;2.70;;;6.90;68.40;;;;;;5116016;28;20192;-64
2022/04/09 06:31:29;;;;;;;4.57;2.45;;;6.90;67.30;;;;;;5103410;28;20189;-63
2022/04/09 06:33:56;;;;;;;3.85;2.72;;;6.90;66.70;;;;;;5095671;28;20224;-63
2022/04/09 06:36:23;;;;;;;2.90;2.40;;;6.80;66.40;;;;;;5105737;28;20281;-63
2022/04/09 06:38:51;;;;;;;4.07;2.63;;;6.90;68.20;;;;;;5115912;28;20185;-63
2022/04/09 06:41:18;;;;;;;3.40;2.35;;;7.00;68.40;;;;;;5114157;28;20257;-63
2022/04/09 06:43:46;;;;;;;2.83;2.10;;;7.00;68.20;;;;;;5115740;28;20707;-64
2022/04/09 06:46:14;;;;;;;2.90;2.05;;;7.00;67.10;;;;;;5104634;27;20189;-63
2022/04/09 06:48:43;;;;;;;4.10;2.92;;;7.10;67.50;;;;;;5095309;28;20185;-63
2022/04/09 06:51:10;;;;;;;7.80;6.57;;;7.10;67.10;;;;;;5096189;28;20547;-63
2022/04/09 06:53:39;;;;;;;3.70;3.05;;;7.20;67.30;;;;;;5095036;28;20221;-63
2022/04/09 06:56:07;;;;;;;3.83;2.95;;;7.30;66.50;;;;;;5105544;28;20589;-63
2022/04/09 06:58:34;;;;;;;3.38;2.33;;;7.40;67.10;;;;;;5115474;28;20237;-63
2022/04/09 07:01:02;;;;;;;3.05;2.13;;;7.50;66.10;;;;;;5105502;28;20186;-63
2022/04/09 07:03:29;;;;;;;3.97;2.45;;;7.50;66.40;;;;;;5095418;28;20242;-63
2022/04/09 07:05:58;;;;;;;3.63;3.28;;;7.60;65.50;;;;;;5102792;28;20243;-63
2022/04/09 07:08:26;;;;;;;4.50;3.08;;;7.70;64.70;;;;;;5115213;28;20203;-64
2022/04/09 07:10:53;;;;;;;4.15;3.40;;;7.60;63.40;;;;;;5107225;28;20181;-63
2022/04/09 07:13:20;;;;;;;3.60;2.97;;;7.60;64.10;;;;;;5095573;28;20265;-63
2022/04/09 07:15:47;;;;;;;3.20;2.40;;;7.60;65.30;;;;;;5100434;28;20188;-64
2022/04/09 07:18:14;;;;;;;4.38;3.00;;;7.60;65.50;;;;;;5100943;28;20274;-63
2022/04/09 07:20:43;;;;;;;3.17;2.10;;;7.60;65.30;;;;;;5094839;28;20189;-64
2022/04/09 07:23:12;;;;;;;2.67;2.15;;;7.70;64.50;;;;;;5094874;28;20224;-63
2022/04/09 07:25:42;;;;;;;6.78;2.83;;;7.70;64.10;;;;;;5101413;28;20184;-63
2022/04/09 07:28:09;;;;;;;3.00;2.05;;;7.70;64.10;;;;;;5108207;28;20185;-64
2022/04/09 07:30:37;;;;;;;3.50;2.10;;;7.70;62.20;;;;;;5098903;28;20180;-66
2022/04/09 07:33:04;;;;;;;3.70;2.88;;;7.60;62.80;;;;;;5114600;28;20216;-63
2022/04/09 07:35:31;;;;;;;4.90;2.78;;;7.70;63.10;;;;;;5111165;28;20185;-63
2022/04/09 07:38:00;;;;;;;3.08;2.40;;;7.70;63.70;;;;;;5094392;28;20197;-63
2022/04/09 07:40:29;;;;;;;3.17;2.30;;;7.70;63.20;;;;;;5096090;28;20216;-63
2022/04/09 07:42:57;;;;;;;12.88;8.52;;;7.60;61.50;;;;;;5114788;28;20343;-62
2022/04/09 07:45:25;;;;;;;5.05;4.00;;;7.50;60.80;;;;;;5113052;28;20195;-63
2022/04/09 07:47:55;;;;;;;6.50;4.32;;;7.40;61.10;;;;;;5094285;28;20189;-63
2022/04/09 07:50:23;;;;;;;3.80;2.90;;;7.40;61.90;;;;;;5093752;28;20192;-65
2022/04/09 07:52:50;;;;;;;5.28;3.78;;;7.40;62.90;;;;;;5114241;28;20241;-67
2022/04/09 07:55:18;;;;;;;3.30;2.65;;;7.30;63.10;;;;;;5113202;28;20192;-63
2022/04/09 07:57:50;;;;;;;4.13;2.50;;;7.30;64.70;;;;;;5073695;28;20189;-63
2022/04/09 08:00:20;;;;;;;11.73;7.30;;;7.30;64.40;;;;;;5074900;28;20591;-64
2022/04/09 08:02:47;;;;;;;8.00;5.55;;;7.40;64.70;;;;;;5113752;28;20280;-63
2022/04/09 08:05:17;;;;;;;4.82;3.90;;;7.40;63.40;;;;;;5114059;28;20188;-64
2022/04/09 08:07:44;;;;;;;4.55;3.83;;;7.40;62.80;;;;;;5111143;28;20192;-63
2022/04/09 08:10:12;;;;;;;4.30;2.70;;;7.40;62.60;;;;;;5093646;28;20189;-63
2022/04/09 08:12:39;;;;;;;5.40;3.47;;;7.40;63.70;;;;;;5112341;28;20270;-63
2022/04/09 08:15:09;;;;;;;4.82;3.00;;;7.50;63.50;;;;;;5114112;28;20265;-64
2022/04/09 08:17:38;;;;;;;4.15;3.60;;;7.60;63.40;;;;;;5114227;28;20224;-64
2022/04/09 08:20:06;;;;;;;4.20;3.13;;;7.80;63.70;;;;;;5114280;28;20199;-63
2022/04/09 08:22:34;;;;;;;3.55;2.92;;;8.10;64.70;;;;;;5113068;28;20231;-63
2022/04/09 08:25:02;;;;;;;4.85;3.42;;;8.40;63.40;;;;;;5114317;28;20202;-63
2022/04/09 08:27:29;;;;;;;5.55;4.38;;;8.90;62.70;;;;;;5107155;28;20187;-63
2022/04/09 08:29:56;;;;;;;4.50;3.40;;;9.30;61.90;;;;;;5093834;28;20279;-63
2022/04/09 08:32:25;;;;;;;3.97;3.58;;;9.60;59.90;;;;;;5094990;28;20276;-64
2022/04/09 08:34:53;;;;;;;9.48;4.90;;;9.80;58.40;;;;;;5093703;28;20221;-64
2022/04/09 08:37:22;;;;;;;5.25;4.00;;;9.80;57.30;;;;;;5100695;28;20202;-64
2022/04/09 08:39:50;;;;;;;4.28;3.88;;;9.60;56.10;;;;;;5113915;28;20643;-63
2022/04/09 08:42:21;;;;;;;5.13;4.10;;;9.50;56.20;;;;;;5107645;28;20597;-64
2022/04/09 08:44:52;;;;;;;4.88;3.63;;;9.40;56.80;;;;;;5089215;28;20197;-63
2022/04/09 08:47:19;;;;;;;6.60;4.68;;;9.70;58.20;;;;;;5092942;28;20224;-63
2022/04/09 08:49:49;;;;;;;6.55;4.93;;;10.50;57.00;;;;;;5092785;28;20606;-63
2022/04/09 08:52:16;;;;;;;4.30;3.47;;;11.00;54.20;;;;;;5092651;28;20189;-64
2022/04/09 08:54:43;;;;;;;5.88;4.22;;;11.10;52.00;;;;;;5092518;28;20311;-63
2022/04/09 08:57:11;;;;;;;5.45;4.68;;;10.90;51.40;;;;;;5096248;28;20267;-63
2022/04/09 08:59:38;;;;;;;4.85;3.78;;;10.70;51.70;;;;;;5112815;28;20180;-64
2022/04/09 09:02:06;;;;;;;5.72;5.22;;;10.70;52.10;;;;;;5110624;28;20286;-64
2022/04/09 09:04:33;;;;;;;5.22;4.38;;;10.70;53.10;;;;;;5093971;28;20232;-63
2022/04/09 09:07:21;;;;;;;4.30;3.60;;;10.80;52.70;;;;;;5112997;28;20594;-64
2022/04/09 09:09:48;;;;;;;5.07;4.57;;;11.00;53.60;;;;;;5111141;28;20176;-64
2022/04/09 09:12:29;;;;;;;4.30;3.90;;;11.80;50.80;;;;;;5113101;28;20271;-64
2022/04/09 09:14:57;;;;;;;5.40;4.80;;;12.60;51.10;;;;;;5109620;28;20211;-63
2022/04/09 09:17:31;;;;;;;5.65;4.50;;;12.50;46.40;;;;;;5112753;28;20540;-63
2022/04/09 09:19:59;;;;;;;5.57;4.45;;;12.40;49.60;;;;;;5092505;28;20231;-63
2022/04/09 09:22:42;;;;;;;5.82;4.45;;;12.80;47.40;;;;;;5091961;28;20288;-63
2022/04/09 09:25:10;;;;;;;6.25;4.30;;;12.90;47.00;;;;;;5095296;28;20527;-64
2022/04/09 09:27:37;;;;;;;5.13;4.63;;;12.60;44.60;;;;;;5112808;28;20631;-68
2022/04/09 09:30:05;;;;;;;4.70;4.20;;;12.10;43.70;;;;;;5109132;28;20276;-63
2022/04/09 09:32:34;;;;;;;4.75;3.92;;;11.60;44.90;;;;;;5092602;28;20276;-64
2022/04/09 09:35:01;;;;;;;7.47;4.80;;;11.30;45.90;;;;;;5097945;28;20682;-63
2022/04/09 09:37:30;;;;;;;8.63;4.40;;;11.00;46.00;;;;;;5117203;28;20226;-63
2022/04/09 09:39:58;;;;;;;5.07;4.55;;;10.90;46.60;;;;;;5115569;28;20192;-63
2022/04/09 09:42:26;;;;;;;5.63;4.20;;;10.90;46.80;;;;;;5096756;28;20275;-63
2022/04/09 09:44:53;;;;;;;5.30;4.30;;;10.80;46.10;;;;;;5097372;28;20279;-64
2022/04/09 09:47:20;;;;;;;5.07;4.35;;;10.70;46.50;;;;;;5096261;28;20224;-64
2022/04/09 09:49:55;;;;;;;7.97;4.55;;;10.50;47.00;;;;;;5096251;28;20606;-65
2022/04/09 09:52:26;;;;;;;6.10;5.22;;;10.30;47.40;;;;;;5096226;28;20200;-63
2022/04/09 09:54:59;;;;;;;5.95;4.45;;;10.10;47.20;;;;;;5095662;28;20321;-63
2022/04/09 09:57:29;;;;;;;12.13;5.35;;;9.80;47.50;;;;;;5116537;28;20279;-63
2022/04/09 09:59:58;;;;;;;11.52;6.20;;;9.80;48.90;;;;;;5115819;28;20271;-64
2022/04/09 10:02:26;;;;;;;7.30;4.80;;;10.10;51.60;;;;;;5097157;28;20224;-64
2022/04/09 10:04:54;;;;;;;5.90;4.13;;;10.70;47.50;;;;;;5096465;28;20212;-64
2022/04/09 10:07:22;;;;;;;5.57;4.20;;;10.70;46.00;;;;;;5102849;28;20197;-63
2022/04/09 10:09:49;;;;;;;8.45;4.95;;;10.30;46.50;;;;;;5102452;28;20204;-63
2022/04/09 10:12:21;;;;;;;6.68;4.80;;;10.20;48.40;;;;;;5106274;28;20193;-63
2022/04/09 10:14:52;;;;;;;7.80;4.68;;;12.70;54.70;;;;;;5107954;28;20354;-64
2022/04/09 10:17:20;;;;;;;5.35;4.25;;;14.10;45.90;;;;;;5100456;28;20480;-63
2022/04/09 10:19:54;;;;;;;4.10;3.25;;;13.80;41.50;;;;;;5102822;28;20298;-64
2022/04/09 10:22:23;;;;;;;4.50;3.50;;;13.20;41.10;;;;;;5107922;28;20189;-63
2022/04/09 10:24:51;;;;;;;5.10;4.28;;;13.80;42.70;;;;;;5105944;28;20203;-64
2022/04/09 10:27:40;;;;;;;3.90;3.20;;;13.90;39.60;;;;;;5101976;28;20703;-64
2022/04/09 10:30:25;;;;;;;5.33;3.50;;;15.00;43.70;;;;;;5106301;28;20219;-64
2022/04/09 10:32:54;;;;;;;7.17;3.43;;;19.90;45.30;;;;;;5109705;28;20429;-64
2022/04/09 10:35:29;;;;;;;4.20;3.00;;;22.80;29.80;;;;;;5109823;28;20909;-65
2022/04/09 10:38:24;;;;;;;6.20;3.47;;;21.70;26.30;;;;;;5103950;28;20464;-65
2022/04/09 10:41:31;;;;;;;3.47;3.10;;;19.90;26.10;;;;;;5104371;28;20430;-64
2022/04/09 10:44:03;;;;;;;4.30;3.27;;;19.90;32.60;;;;;;5087220;28;20427;-64
2022/04/09 10:46:36;;;;;;;4.83;3.00;;;21.80;30.10;;;;;;5101480;28;20526;-64
2022/04/09 10:49:20;;;;;;;5.07;3.00;;;25.30;29.80;;;;;;5110720;28;20434;-64
2022/04/09 10:52:08;;;;;;;5.00;3.43;;;29.60;22.20;;;;;;5107241;28;20979;-64
2022/04/09 10:54:36;;;;;;;6.90;5.93;;;31.30;19.80;;;;;;5105683;28;20546;-64
2022/04/09 10:57:22;;;;;;;4.07;2.40;;;31.00;19.20;;;;;;5105097;28;20446;-64
2022/04/09 10:59:58;;;;;;;3.83;3.30;;;30.10;17.30;;;;;;5103199;28;20518;-64
2022/04/09 11:02:26;;;;;;;3.90;2.60;;;28.60;15.50;;;;;;5105376;28;20441;-64
2022/04/09 11:04:53;;;;;;;6.03;2.90;;;26.20;17.00;;;;;;5093979;28;20939;-66
2022/04/09 11:07:22;;;;;;;3.63;3.20;;;24.10;17.60;;;;;;5093297;28;20866;-65
2022/04/09 11:09:51;;;;;;;5.13;3.43;;;22.30;18.70;;;;;;5092889;28;20697;-64
2022/04/09 11:12:20;;;;;;;4.73;3.03;;;21.10;20.20;;;;;;5095566;28;20443;-64
2022/04/09 11:14:49;;;;;;;3.70;3.10;;;19.90;20.90;;;;;;5096765;28;20482;-64
2022/04/09 11:17:25;;;;;;;4.87;3.47;;;18.90;22.30;;;;;;5096716;28;20475;-64
2022/04/09 11:19:52;;;;;;;5.50;3.60;;;18.50;27.80;;;;;;5100290;28;20802;-66
2022/04/09 11:22:19;;;;;;;5.70;3.70;;;19.50;28.10;;;;;;5095223;28;20827;-64
2022/04/09 11:24:47;;;;;;;5.47;3.30;;;20.10;23.10;;;;;;5094119;28;20439;-64
2022/04/09 11:27:14;;;;;;;4.27;3.10;;;19.50;22.10;;;;;;5112287;28;20533;-65
2022/04/09 11:29:42;;;;;;;4.57;2.70;;;19.00;24.30;;;;;;5114475;28;20917;-65
2022/04/09 11:32:19;;;;;;;4.60;2.53;;;19.40;26.90;;;;;;5097307;28;20439;-67
2022/04/09 11:34:53;;;;;;;3.90;3.33;;;20.30;25.00;;;;;;5094118;28;20561;-64
2022/04/09 11:37:21;;;;;;;4.70;3.40;;;20.30;22.10;;;;;;5110613;28;20529;-64
2022/04/09 11:39:50;;;;;;;5.80;4.03;;;19.40;21.30;;;;;;5114453;28;20438;-64
2022/04/09 11:42:17;;;;;;;4.50;3.67;;;18.50;22.30;;;;;;5112697;28;20518;-64
2022/04/09 11:44:44;;;;;;;4.90;3.80;;;17.60;22.90;;;;;;5112623;28;20438;-66
2022/04/09 11:47:13;;;;;;;7.90;2.90;;;16.90;24.00;;;;;;5113497;28;20430;-64
2022/04/09 11:49:41;;;;;;;7.10;3.03;;;16.10;24.30;;;;;;5112748;28;20461;-65
2022/04/09 11:52:10;;;;;;;5.50;3.40;;;15.50;24.90;;;;;;5093750;28;20527;-64
2022/04/09 11:54:38;;;;;;;5.67;3.43;;;14.90;26.60;;;;;;5093383;28;20514;-68
2022/04/09 11:57:11;;;;;;;4.57;3.10;;;14.30;27.30;;;;;;5072353;28;20502;-64
2022/04/09 11:59:40;;;;;;;5.47;3.67;;;13.70;28.10;;;;;;5073873;28;20855;-64
2022/04/09 12:02:19;;;;;;;4.87;3.33;;;13.30;28.90;;;;;;5073334;28;20467;-66
2022/04/09 12:04:51;;;;;;;6.00;2.87;;;13.30;34.90;;;;;;5073837;28;20447;-64
2022/04/09 12:07:24;;;;;;;3.50;1.80;;;14.00;35.40;;;;;;5085329;28;20462;-64
2022/04/09 12:09:51;;;;;;;3.27;1.70;;;15.20;33.70;;;;;;5110912;28;20465;-64
2022/04/09 12:12:20;;;;;;;3.00;1.93;;;16.00;32.20;;;;;;5113448;28;20473;-64
2022/04/09 12:14:55;;;;;;;3.93;2.13;;;16.60;32.20;;;;;;5093773;28;20506;-65
2022/04/09 12:17:23;;;;;;;4.93;1.70;;;16.70;29.30;;;;;;5092728;28;20828;-64
2022/04/09 12:19:51;;;;;;;3.10;2.00;;;16.70;26.10;;;;;;5112131;28;20448;-64
2022/04/09 12:22:22;;;;;;;2.73;1.93;;;16.30;25.10;;;;;;5113256;28;20434;-64
2022/04/09 12:24:51;;;;;;;5.13;2.00;;;15.90;26.90;;;;;;5112765;28;20438;-64
2022/04/09 12:27:18;;;;;;;3.20;1.67;;;15.60;27.50;;;;;;5112986;28;20470;-64
2022/04/09 12:29:50;;;;;;;2.73;1.57;;;15.60;29.30;;;;;;5095385;28;20523;-64
2022/04/09 12:32:20;;;;;;;2.97;1.60;;;15.80;31.50;;;;;;5092742;28;20801;-64
2022/04/09 12:34:58;;;;;;;5.23;1.70;;;16.00;30.30;;;;;;5111456;28;20473;-64
2022/04/09 12:37:27;;;;;;;4.50;1.93;;;16.10;29.80;;;;;;5113813;28;20495;-63
2022/04/09 12:40:13;;;;;;;3.30;2.20;;;16.00;28.90;;;;;;5094036;28;20757;-63
2022/04/09 12:42:40;;;;;;;2.90;2.40;;;15.80;26.40;;;;;;5093396;28;20546;-65
2022/04/09 12:45:15;;;;;;;3.60;2.80;;;15.50;26.50;;;;;;5113788;28;20473;-65
2022/04/09 12:47:43;;;;;;;3.03;2.27;;;15.20;26.20;;;;;;5098755;28;20510;-64
2022/04/09 12:50:21;;;;;;;4.20;2.43;;;14.90;27.20;;;;;;5093006;28;20447;-64
2022/04/09 12:52:49;;;;;;;2.70;1.87;;;14.50;27.40;;;;;;5107757;28;20465;-64
2022/04/09 12:55:18;;;;;;;6.83;3.40;;;14.00;27.90;;;;;;5094873;28;20475;-63
2022/04/09 12:57:45;;;;;;;5.13;2.53;;;13.60;28.60;;;;;;5106910;28;20517;-64
2022/04/09 13:00:14;;;;;;;6.47;3.03;;;13.20;30.30;;;;;;5113657;28;20854;-67
2022/04/09 13:02:42;;;;;;;8.57;3.47;;;12.90;31.30;;;;;;5099358;28;20956;-64
2022/04/09 13:05:10;;;;;;;5.90;3.47;;;12.70;32.70;;;;;;5099941;28;20466;-63